Terminal Aerodrome Forecast
Issued by NWS

Home | Current Version | Previous Version | Text Only | Print | Product List | Glossary On
Versions: 1 2 3 4 5 6 7 8 9 10 11 12 13 14 15 16 17 18 19 20 21
000
FTUS44 KEWX 251142
TAFSSF
TAF
KSSF 251142Z 2512/2612 VRB03KT P6SM BKN009
     FM251400 16006KT P6SM SCT040 SCT100
     FM251800 13010KT P6SM BKN050 BKN100
     FM252200 10010KT P6SM VCTS BKN050CB
     FM260200 12008KT P6SM VCSH OVC100
     FM260500 15007KT P6SM BKN100=

USA.gov is the U.S. government's official web portal to all federal, state and local government web resources and services.